createdAt,value
2023-03-24T00:01:22.512Z,98535.81
2023-03-24T00:03:52.549Z,98543.47
2023-03-24T00:06:22.949Z,98515.19
2023-03-24T00:08:50.900Z,98517.78
2023-03-24T00:11:19.548Z,98520.34
2023-03-24T00:13:50.515Z,98511.81
2023-03-24T00:16:19.835Z,98525.50
2023-03-24T00:18:53.152Z,98514.22
2023-03-24T00:21:25.685Z,98521.19
2023-03-24T00:23:55.798Z,98515.19
2023-03-24T00:26:25.247Z,98517.91
2023-03-24T00:28:53.574Z,98512.66
2023-03-24T00:31:22.326Z,98508.56
2023-03-24T00:33:53.983Z,98510.84
2023-03-24T00:36:24.553Z,98493.72
2023-03-24T00:38:53.473Z,98495.53
2023-03-24T00:41:21.723Z,98490.59
2023-03-24T00:43:50.998Z,98488.84
2023-03-24T00:46:27.809Z,98480.19
2023-03-24T00:49:02.471Z,98476.00
2023-03-24T00:51:32.701Z,98483.72
2023-03-24T00:54:02.164Z,98482.03
2023-03-24T00:56:33.903Z,98479.50
2023-03-24T00:59:02.477Z,98481.16
2023-03-24T01:01:36.630Z,98460.69
2023-03-24T01:04:06.200Z,98467.41
2023-03-24T01:06:37.308Z,98455.41
2023-03-24T01:09:06.487Z,98466.66
2023-03-24T01:11:38.839Z,98460.59
2023-03-24T01:14:06.947Z,98459.00
2023-03-24T01:16:34.451Z,98471.97
2023-03-24T01:19:02.290Z,98481.28
2023-03-24T01:21:29.838Z,98498.38
2023-03-24T01:23:58.066Z,98490.56
2023-03-24T01:26:25.559Z,98483.78
2023-03-24T01:28:53.182Z,98487.34
2023-03-24T01:31:20.851Z,98476.31
2023-03-24T01:33:48.441Z,98472.81
2023-03-24T01:36:16.098Z,98471.91
2023-03-24T01:38:43.607Z,98474.44
2023-03-24T01:41:11.698Z,98460.00
2023-03-24T01:43:39.303Z,98453.91
2023-03-24T01:46:18.013Z,98453.88
2023-03-24T01:49:02.752Z,98452.31
2023-03-24T01:51:38.358Z,98451.41
2023-03-24T01:54:11.260Z,98446.94
2023-03-24T01:56:44.320Z,98452.00
2023-03-24T01:59:19.404Z,98453.84
2023-03-24T02:02:03.303Z,98441.63
2023-03-24T02:04:48.618Z,98442.50
2023-03-24T02:07:27.239Z,98438.13
2023-03-24T02:09:54.842Z,98432.97
2023-03-24T02:12:22.520Z,98432.91
2023-03-24T02:14:51.571Z,98426.97
2023-03-24T02:17:52.018Z,98433.00
2023-03-24T02:20:19.544Z,98426.13
2023-03-24T02:23:18.034Z,98421.22
2023-03-24T02:25:45.627Z,98425.63
2023-03-24T02:28:33.317Z,98410.19
2023-03-24T02:31:10.029Z,98411.97
2023-03-24T02:34:18.199Z,98404.34
2023-03-24T02:37:14.772Z,98403.53
2023-03-24T02:40:11.791Z,98404.66
2023-03-24T02:43:09.723Z,98395.16
2023-03-24T02:45:43.379Z,98380.56
2023-03-24T02:48:11.153Z,98390.75
2023-03-24T02:51:04.735Z,98386.56
2023-03-24T02:53:44.319Z,98378.88
2023-03-24T02:57:05.128Z,98392.69
2023-03-24T03:00:20.887Z,98377.25
2023-03-24T03:03:41.666Z,98380.56
2023-03-24T03:06:18.370Z,98369.38
2023-03-24T03:08:48.530Z,98377.16
2023-03-24T03:11:17.676Z,98371.03
2023-03-24T03:14:36.912Z,98365.47
2023-03-24T03:17:12.704Z,98356.75
2023-03-24T03:19:50.449Z,98362.63
2023-03-24T03:22:34.407Z,98357.56
2023-03-24T03:25:04.454Z,98350.69
2023-03-24T03:27:39.338Z,98354.19
2023-03-24T03:30:45.453Z,98342.28
2023-03-24T03:33:24.780Z,98348.22
2023-03-24T03:35:59.093Z,98338.06
2023-03-24T03:38:55.996Z,98349.19
2023-03-24T03:41:24.272Z,98345.78
2023-03-24T03:43:52.606Z,98352.63
2023-03-24T03:46:20.287Z,98354.22
2023-03-24T03:48:50.336Z,98357.59
2023-03-24T03:51:19.903Z,98340.44
2023-03-24T03:53:59.123Z,98351.44
2023-03-24T03:56:29.731Z,98354.72
2023-03-24T03:59:33.989Z,98350.56
2023-03-24T04:02:29.028Z,98352.97
2023-03-24T04:05:26.280Z,98357.97
2023-03-24T04:09:03.363Z,98352.09
2023-03-24T04:11:45.235Z,98344.16
2023-03-24T04:14:48.691Z,98348.53
2023-03-24T04:18:04.740Z,98356.00
2023-03-24T04:21:48.638Z,98348.16
2023-03-24T04:24:29.465Z,98333.63
2023-03-24T04:27:09.422Z,98334.38
2023-03-24T04:29:48.308Z,98340.22
2023-03-24T04:32:42.194Z,98342.91
2023-03-24T04:35:20.735Z,98333.28
2023-03-24T04:38:17.341Z,98330.72
2023-03-24T04:40:52.123Z,98333.22
2023-03-24T04:43:25.022Z,98323.78
2023-03-24T04:45:57.992Z,98327.22
2023-03-24T04:48:51.832Z,98340.81
2023-03-24T04:51:27.158Z,98329.66
2023-03-24T04:54:12.508Z,98333.91
2023-03-24T04:56:56.967Z,98328.88
2023-03-24T04:59:38.619Z,98329.56
2023-03-24T05:02:07.521Z,98314.94
2023-03-24T05:04:45.883Z,98336.31
2023-03-24T05:07:24.957Z,98336.31
2023-03-24T05:09:57.496Z,98336.28
2023-03-24T05:12:25.215Z,98334.44
2023-03-24T05:15:12.587Z,98334.34
2023-03-24T05:17:41.625Z,98342.09
2023-03-24T05:20:12.908Z,98339.59
2023-03-24T05:22:43.719Z,98336.97
2023-03-24T05:25:12.067Z,98333.53
2023-03-24T05:28:16.127Z,98340.28
2023-03-24T05:30:54.217Z,98333.41
2023-03-24T05:33:54.139Z,98340.44
2023-03-24T05:36:22.989Z,98340.28
2023-03-24T05:38:55.653Z,98328.31
2023-03-24T05:41:26.728Z,98336.91
2023-03-24T05:43:54.274Z,98341.38
2023-03-24T05:46:23.298Z,98335.28
2023-03-24T05:48:52.937Z,98337.09
2023-03-24T05:51:21.733Z,98335.38
2023-03-24T05:53:59.349Z,98337.19
2023-03-24T05:56:47.176Z,98331.44
2023-03-24T05:59:21.330Z,98323.81
2023-03-24T06:02:05.424Z,98327.41
2023-03-24T06:04:46.727Z,98331.50
2023-03-24T06:07:18.164Z,98336.69
2023-03-24T06:09:47.540Z,98331.56
2023-03-24T06:12:16.706Z,98322.13
2023-03-24T06:14:55.959Z,98332.34
2023-03-24T06:17:24.831Z,98327.88
2023-03-24T06:20:03.027Z,98338.25
2023-03-24T06:22:33.597Z,98333.88
2023-03-24T06:25:03.813Z,98327.94
2023-03-24T06:27:35.937Z,98332.09
2023-03-24T06:30:05.690Z,98332.13
2023-03-24T06:32:34.399Z,98329.53
2023-03-24T06:35:02.419Z,98327.88
2023-03-24T06:37:37.153Z,98321.97
2023-03-24T06:40:10.363Z,98327.91
2023-03-24T06:42:42.779Z,98333.88
2023-03-24T06:45:14.350Z,98340.81
2023-03-24T06:47:47.866Z,98327.41
2023-03-24T06:50:16.727Z,98324.91
2023-03-24T06:52:46.582Z,98326.53
2023-03-24T06:55:21.364Z,98329.19
2023-03-24T06:57:52.844Z,98317.34
2023-03-24T07:01:00.999Z,98321.06
2023-03-24T07:03:39.260Z,98320.97
2023-03-24T07:06:25.804Z,98327.81
2023-03-24T07:08:59.943Z,98319.25
2023-03-24T07:11:29.831Z,98320.84
2023-03-24T07:13:59.919Z,98314.94
2023-03-24T07:16:29.259Z,98308.88
2023-03-24T07:19:10.590Z,98320.13
2023-03-24T07:21:40.984Z,98316.56
2023-03-24T07:24:08.512Z,98321.63
2023-03-24T07:26:48.047Z,98328.47
2023-03-24T07:29:22.164Z,98329.34
2023-03-24T07:32:15.968Z,98324.25
2023-03-24T07:34:45.828Z,98333.53
2023-03-24T07:37:13.581Z,98333.50
2023-03-24T07:39:41.298Z,98337.84
2023-03-24T07:42:11.816Z,98330.09
2023-03-24T07:44:57.234Z,98343.13
2023-03-24T07:47:27.567Z,98333.78
2023-03-24T07:49:56.774Z,98333.94
2023-03-24T07:52:24.366Z,98336.47
2023-03-24T07:54:58.656Z,98347.56
2023-03-24T07:57:48.303Z,98352.78
2023-03-24T08:00:25.089Z,98352.78
2023-03-24T08:03:14.623Z,98353.69
2023-03-24T08:05:48.756Z,98349.47
2023-03-24T08:08:40.497Z,98352.16
2023-03-24T08:11:08.117Z,98344.53
2023-03-24T08:13:37.769Z,98354.06
2023-03-24T08:16:05.571Z,98348.94
2023-03-24T08:18:35.155Z,98348.81
2023-03-24T08:43:44.258Z,98352.66
2023-03-24T08:46:40.102Z,98352.81
2023-03-24T08:49:07.772Z,98356.28
2023-03-24T08:51:47.325Z,98351.31
2023-03-24T08:54:17.729Z,98354.03
2023-03-24T08:56:45.531Z,98354.22
2023-03-24T08:59:13.247Z,98361.06
2023-03-24T09:01:40.928Z,98353.25
2023-03-24T09:04:08.388Z,98360.94
2023-03-24T09:06:35.826Z,98366.09
2023-03-24T09:09:03.451Z,98370.44
2023-03-24T09:11:31.325Z,98369.53
2023-03-24T09:13:59.105Z,98368.56
2023-03-24T09:16:26.944Z,98372.75
2023-03-24T09:18:54.487Z,98375.22
2023-03-24T09:21:21.934Z,98379.50
2023-03-24T09:23:49.540Z,98375.19
2023-03-24T09:26:17.085Z,98378.72
2023-03-24T09:28:44.648Z,98377.09
2023-03-24T09:31:12.206Z,98378.00
2023-03-24T09:33:39.905Z,98379.69
2023-03-24T09:36:08.088Z,98376.28
2023-03-24T09:38:36.112Z,98387.50
2023-03-24T09:41:04.605Z,98390.09
2023-03-24T09:43:32.151Z,98395.28
2023-03-24T09:46:02.978Z,98389.28
2023-03-24T09:48:59.812Z,98402.28
2023-03-24T09:51:30.034Z,98404.66
2023-03-24T09:54:22.386Z,98393.50
2023-03-24T09:56:52.069Z,98412.03
2023-03-24T09:59:34.770Z,98410.28
2023-03-24T10:02:10.782Z,98400.53
2023-03-24T10:04:38.681Z,98404.81
2023-03-24T10:07:30.955Z,98409.09
2023-03-24T10:10:00.269Z,98410.66
2023-03-24T10:12:40.305Z,98415.56
2023-03-24T10:15:37.135Z,98420.59
2023-03-24T10:18:33.479Z,98418.16
2023-03-24T10:21:25.887Z,98410.28
2023-03-24T10:24:12.098Z,98415.44
2023-03-24T10:26:56.948Z,98413.72
2023-03-24T10:29:31.326Z,98413.84
2023-03-24T10:32:21.019Z,98429.50
2023-03-24T10:34:55.837Z,98414.09
2023-03-24T10:37:23.653Z,98421.06
2023-03-24T10:39:52.060Z,98413.56
2023-03-24T10:42:25.853Z,98418.97
2023-03-24T10:44:53.538Z,98422.53
2023-03-24T10:47:32.874Z,98421.84
2023-03-24T10:50:12.176Z,98429.47
2023-03-24T10:52:49.010Z,98426.13
2023-03-24T10:55:19.582Z,98439.00
2023-03-24T10:57:50.929Z,98438.91
2023-03-24T11:00:30.169Z,98435.44
2023-03-24T11:03:02.396Z,98445.72
2023-03-24T11:05:36.947Z,98445.00
2023-03-24T11:08:29.992Z,98436.66
2023-03-24T11:10:58.244Z,98440.91
2023-03-24T11:13:34.548Z,98443.00
2023-03-24T11:16:08.562Z,98437.81
2023-03-24T11:18:36.628Z,98444.63
2023-03-24T11:21:07.139Z,98434.16
2023-03-24T11:23:38.279Z,98428.59
2023-03-24T11:26:16.933Z,98429.53
2023-03-24T11:28:53.149Z,98421.13
2023-03-24T11:31:32.247Z,98416.00
2023-03-24T11:45:46.163Z,98448.97
2023-03-24T11:48:16.826Z,98437.88
2023-03-24T11:51:27.670Z,98452.56
2023-03-24T11:59:30.579Z,98464.56
2023-03-24T12:15:59.552Z,98482.63
2023-03-24T12:18:48.133Z,98486.72
2023-03-24T12:21:59.062Z,98498.50
2023-03-24T12:25:22.445Z,98499.34
2023-03-24T12:32:01.665Z,98493.91
2023-03-24T12:34:49.969Z,98486.13
2023-03-24T12:42:03.037Z,98494.66
2023-03-24T12:45:51.448Z,98504.84
2023-03-24T12:49:13.154Z,98504.72
2023-03-24T12:51:53.193Z,98493.47
2023-03-24T12:55:14.491Z,98485.28
2023-03-24T12:58:39.416Z,98491.31
2023-03-24T13:01:43.826Z,98494.69
2023-03-24T13:05:10.655Z,98502.19
2023-03-24T13:08:43.465Z,98501.75
2023-03-24T13:12:31.523Z,98499.88
2023-03-24T13:16:06.831Z,98500.00
2023-03-24T13:19:15.600Z,98502.75
2023-03-24T13:21:53.076Z,98502.75
2023-03-24T13:24:21.308Z,98501.88
2023-03-24T13:27:28.916Z,98512.19
2023-03-24T13:30:39.175Z,98511.28
2023-03-24T13:33:27.470Z,98505.19
2023-03-24T13:36:20.148Z,98513.69
2023-03-24T13:38:55.545Z,98519.41
2023-03-24T13:41:27.434Z,98510.59
2023-03-24T13:44:01.529Z,98508.72
2023-03-24T13:46:29.809Z,98506.81
2023-03-24T13:48:59.159Z,98520.50
2023-03-24T13:51:33.530Z,98514.44
2023-03-24T13:54:06.086Z,98521.19
2023-03-24T13:56:37.199Z,98515.94
2023-03-24T13:59:13.518Z,98527.00
2023-03-24T14:01:44.103Z,98527.69
2023-03-24T14:04:28.395Z,98531.97
2023-03-24T14:06:59.015Z,98524.97
2023-03-24T14:09:31.006Z,98527.41
2023-03-24T14:12:04.333Z,98521.41
2023-03-24T14:14:36.302Z,98531.63
2023-03-24T14:17:12.391Z,98539.34
2023-03-24T14:19:43.913Z,98549.63
2023-03-24T14:22:14.194Z,98542.75
2023-03-24T14:24:45.006Z,98550.47
2023-03-24T14:27:29.486Z,98541.13
2023-03-24T14:30:01.058Z,98553.88
2023-03-24T14:32:30.617Z,98544.34
2023-03-24T14:35:00.303Z,98558.88
2023-03-24T14:37:29.089Z,98565.75
2023-03-24T14:39:58.561Z,98558.88
2023-03-24T14:42:31.824Z,98567.47
2023-03-24T14:45:05.799Z,98554.50
2023-03-24T14:47:38.742Z,98563.97
2023-03-24T14:50:21.912Z,98558.81
2023-03-24T14:52:59.459Z,98552.72
2023-03-24T14:55:28.256Z,98562.06
2023-03-24T14:58:01.042Z,98555.16
2023-03-24T15:01:07.548Z,98580.13
2023-03-24T15:03:42.181Z,98573.00
2023-03-24T15:06:18.042Z,98584.13
2023-03-24T15:09:01.391Z,98581.50
2023-03-24T15:11:34.594Z,98597.69
2023-03-24T15:14:28.442Z,98607.22
2023-03-24T15:17:16.389Z,98584.75
2023-03-24T15:19:44.067Z,98601.78
2023-03-24T15:22:15.464Z,98612.81
2023-03-24T15:24:43.465Z,98617.91
2023-03-24T15:27:15.599Z,98618.75
2023-03-24T15:29:46.645Z,98628.13
2023-03-24T15:32:23.312Z,98612.66
2023-03-24T15:34:52.573Z,98612.63
2023-03-24T15:37:24.360Z,98627.16
2023-03-24T15:40:01.943Z,98637.28
2023-03-24T15:42:42.825Z,98625.22
2023-03-24T15:45:32.093Z,98634.78
2023-03-24T15:48:08.744Z,98633.69
2023-03-24T15:50:42.019Z,98637.09
2023-03-24T15:53:16.041Z,98641.38
2023-03-24T15:55:43.942Z,98642.09
2023-03-24T15:58:28.859Z,98649.06
2023-03-24T16:01:00.114Z,98655.81
2023-03-24T16:03:32.429Z,98655.66
2023-03-24T16:06:00.065Z,98666.81
2023-03-24T16:08:35.976Z,98668.53
2023-03-24T16:11:11.021Z,98674.84
2023-03-24T16:13:40.691Z,98670.31
2023-03-24T16:16:27.498Z,98668.59
2023-03-24T16:18:59.614Z,98671.91
2023-03-24T16:57:03.509Z,98692.78
2023-03-24T16:59:31.083Z,98708.25
2023-03-24T17:02:06.141Z,98703.00
2023-03-24T17:04:34.117Z,98710.75
2023-03-24T17:07:01.670Z,98707.22
2023-03-24T17:09:30.894Z,98711.47
2023-03-24T17:12:00.675Z,98716.69
2023-03-24T17:14:30.894Z,98714.88
2023-03-24T17:16:59.776Z,98713.81
2023-03-24T17:19:27.326Z,98715.34
2023-03-24T17:22:03.425Z,98717.72
2023-03-24T17:24:36.083Z,98715.75
2023-03-24T17:27:10.429Z,98724.16
2023-03-24T17:29:37.973Z,98731.63
2023-03-24T17:32:05.586Z,98718.56
2023-03-24T17:34:33.131Z,98736.44
2023-03-24T17:37:01.094Z,98737.16
2023-03-24T17:39:28.734Z,98740.47
2023-03-24T17:42:02.007Z,98734.31
2023-03-24T17:44:36.937Z,98747.94
2023-03-24T17:47:07.630Z,98746.94
2023-03-24T17:49:35.180Z,98754.47
2023-03-24T17:52:32.177Z,98768.28
2023-03-24T17:55:07.551Z,98765.50
2023-03-24T17:58:02.189Z,98770.63
2023-03-24T18:00:34.133Z,98764.22
2023-03-24T18:03:04.458Z,98764.31
2023-03-24T18:05:35.913Z,98770.19
2023-03-24T18:08:04.250Z,98771.81
2023-03-24T18:10:34.351Z,98769.13
2023-03-24T18:13:03.864Z,98767.41
2023-03-24T18:15:31.875Z,98774.22
2023-03-24T18:17:59.387Z,98770.63
2023-03-24T18:20:27.626Z,98767.94
2023-03-24T18:22:55.106Z,98772.19
2023-03-24T18:25:22.797Z,98780.75
2023-03-24T18:27:50.225Z,98781.59
2023-03-24T18:30:17.764Z,98774.84
2023-03-24T18:32:45.610Z,98780.72
2023-03-24T18:35:16.422Z,98790.91
2023-03-24T18:37:44.601Z,98784.66
2023-03-24T18:40:12.591Z,98790.69
2023-03-24T18:42:40.425Z,98788.19
2023-03-24T18:45:08.566Z,98791.53
2023-03-24T18:47:36.485Z,98788.97
2023-03-24T18:50:04.414Z,98780.16
2023-03-24T18:52:33.216Z,98780.16
2023-03-24T18:55:02.520Z,98786.22
2023-03-24T18:57:31.372Z,98787.81
2023-03-24T19:00:00.920Z,98785.31
2023-03-24T19:02:30.796Z,98779.97
2023-03-24T19:04:58.455Z,98785.09
2023-03-24T19:07:26.407Z,98779.81
2023-03-24T19:09:54.874Z,98784.94
2023-03-24T19:12:22.533Z,98781.63
2023-03-24T19:14:50.856Z,98783.25
2023-03-24T19:17:18.370Z,98776.34
2023-03-24T19:19:46.008Z,98785.72
2023-03-24T19:22:15.446Z,98779.78
2023-03-24T19:24:42.983Z,98779.72
2023-03-24T19:27:10.453Z,98766.88
2023-03-24T19:29:38.047Z,98781.50
2023-03-24T19:32:05.812Z,98778.09
2023-03-24T19:34:33.396Z,98776.38
2023-03-24T19:37:00.897Z,98771.88
2023-03-24T19:39:28.393Z,98777.97
2023-03-24T19:41:56.045Z,98774.56
2023-03-24T19:44:23.657Z,98782.97
2023-03-24T19:46:51.104Z,98776.91
2023-03-24T19:49:19.038Z,98775.94
2023-03-24T19:51:47.454Z,98771.75
2023-03-24T19:54:15.530Z,98758.97
2023-03-24T19:56:43.273Z,98770.00
2023-03-24T19:59:10.793Z,98767.44
2023-03-24T20:01:38.246Z,98771.56
2023-03-24T20:04:05.925Z,98762.97
2023-03-24T20:06:33.557Z,98761.16
2023-03-24T20:09:01.318Z,98769.75
2023-03-24T20:11:28.873Z,98762.00
2023-03-24T20:13:56.595Z,98768.84
2023-03-24T20:16:24.781Z,98757.63
2023-03-24T20:18:52.629Z,98762.78
2023-03-24T20:21:24.650Z,98753.38
2023-03-24T20:23:52.771Z,98757.56
2023-03-24T20:26:20.591Z,98757.56
2023-03-24T20:28:48.377Z,98754.09
2023-03-24T20:31:16.651Z,98752.19
2023-03-24T20:33:44.196Z,98735.69
2023-03-24T20:36:12.087Z,98741.03
2023-03-24T20:38:39.627Z,98744.25
2023-03-24T20:41:07.708Z,98744.50
2023-03-24T20:43:37.352Z,98740.22
2023-03-24T20:46:09.780Z,98736.69
2023-03-24T20:48:37.965Z,98725.41
2023-03-24T20:51:07.828Z,98720.25
2023-03-24T20:53:36.063Z,98737.38
2023-03-24T20:56:09.490Z,98724.34
2023-03-24T20:58:38.151Z,98716.63
2023-03-24T21:01:20.509Z,98720.78
2023-03-24T21:03:53.285Z,98720.88
2023-03-24T21:06:21.233Z,98709.72
2023-03-24T21:08:48.689Z,98716.53
2023-03-24T21:11:16.304Z,98706.25
2023-03-24T21:13:44.127Z,98704.38
2023-03-24T21:16:13.103Z,98703.53
2023-03-24T21:18:46.030Z,98712.00
2023-03-24T21:21:15.416Z,98706.88
2023-03-24T21:23:43.495Z,98718.94
2023-03-24T21:26:17.393Z,98714.84
2023-03-24T21:28:45.463Z,98714.13
2023-03-24T21:31:24.487Z,98721.16
2023-03-24T21:33:52.966Z,98709.84
2023-03-24T21:36:22.224Z,98716.88
2023-03-24T21:38:51.823Z,98705.72
2023-03-24T21:41:20.341Z,98713.34
2023-03-24T21:43:51.383Z,98700.47
2023-03-24T21:46:22.104Z,98696.19
2023-03-24T21:48:52.283Z,98705.63
2023-03-24T21:51:33.979Z,98702.28
2023-03-24T21:54:03.643Z,98701.34
2023-03-24T21:56:33.136Z,98704.78
2023-03-24T21:59:01.139Z,98702.91
2023-03-24T22:01:28.870Z,98704.69
2023-03-24T22:03:58.837Z,98694.31
2023-03-24T22:06:29.063Z,98701.97
2023-03-24T22:08:58.773Z,98706.22
2023-03-24T22:11:26.453Z,98709.63
2023-03-24T22:13:56.352Z,98714.13
2023-03-24T22:16:23.820Z,98690.88
2023-03-24T22:18:53.062Z,98696.81
2023-03-24T22:21:20.631Z,98677.38
2023-03-24T22:23:48.071Z,98679.88
2023-03-24T22:26:19.213Z,98674.00
2023-03-24T22:28:46.814Z,98674.06
2023-03-24T22:31:16.777Z,98676.72
2023-03-24T22:33:45.345Z,98674.13
2023-03-24T22:36:12.891Z,98682.00
2023-03-24T22:38:40.680Z,98677.06
2023-03-24T22:41:10.812Z,98681.25
2023-03-24T22:43:41.859Z,98677.75
2023-03-24T22:46:11.917Z,98679.53
2023-03-24T22:48:42.183Z,98679.59
2023-03-24T22:51:10.616Z,98667.53
2023-03-24T22:53:38.214Z,98672.78
2023-03-24T22:56:06.417Z,98662.22
2023-03-24T22:58:35.839Z,98662.09
2023-03-24T23:01:04.938Z,98660.22
2023-03-24T23:03:33.432Z,98654.13
2023-03-24T23:06:05.158Z,98660.09
2023-03-24T23:08:33.768Z,98651.66
2023-03-24T23:11:01.498Z,98648.25
2023-03-24T23:13:30.888Z,98655.16
2023-03-24T23:15:58.596Z,98654.19
2023-03-24T23:18:26.221Z,98660.34
2023-03-24T23:21:07.910Z,98654.25
2023-03-24T23:23:36.810Z,98650.59
2023-03-24T23:26:05.667Z,98651.41
2023-03-24T23:28:33.716Z,98657.44
2023-03-24T23:31:01.437Z,98658.44
2023-03-24T23:33:29.390Z,98659.97
2023-03-24T23:35:58.829Z,98656.56
2023-03-24T23:38:27.555Z,98653.16
2023-03-24T23:40:55.111Z,98651.25
2023-03-24T23:43:22.774Z,98658.09
2023-03-24T23:45:55.285Z,98653.97
2023-03-24T23:48:23.921Z,98641.66
2023-03-24T23:51:02.581Z,98637.66
2023-03-24T23:53:30.806Z,98632.59
2023-03-24T23:56:06.756Z,98627.44
2023-03-24T23:58:37.143Z,98631.72
